Time;durP1;ratioP1;P1;durP2;ratioP2;P2;SDS_P1;SDS_P2;PMS_P1;PMS_P2;Temp;Humidity;BMP_temperature;BMP_pressure;BME280_temperature;BME280_humidity;BME280_pressure;Samples;Min_cycle;Max_cycle;Signal;HPM_P1;HPM_P2
2023/07/17 00:02:12;;;;;;;6.13;3.38;;;;;;;;;;5006923;28;20249;-69
2023/07/17 00:04:38;;;;;;;6.03;3.20;;;;;;;;;;4999767;28;20210;-69
2023/07/17 00:07:03;;;;;;;8.20;3.80;;;;;;;;;;5010007;28;20225;-68
2023/07/17 00:09:28;;;;;;;6.93;3.17;;;;;;;;;;5010010;28;20196;-69
2023/07/17 00:11:54;;;;;;;8.95;3.58;;;;;;;;;;5011762;28;20194;-72
2023/07/17 00:14:19;;;;;;;8.43;3.83;;;;;;;;;;5008605;28;20222;-69
2023/07/17 00:16:44;;;;;;;8.70;3.45;;;;;;;;;;5007419;28;20214;-68
2023/07/17 00:19:10;;;;;;;8.88;3.22;;;;;;;;;;5000054;28;20194;-68
2023/07/17 00:21:36;;;;;;;8.45;3.42;;;;;;;;;;5016095;28;20198;-70
2023/07/17 00:24:01;;;;;;;7.78;3.63;;;;;;;;;;5026661;28;20198;-68
2023/07/17 00:26:28;;;;;;;7.47;3.17;;;;;;;;;;5013157;28;21079;-68
2023/07/17 00:29:15;;;;;;;9.07;3.25;;;;;;;;;;5016065;28;20223;-69
2023/07/17 00:31:40;;;;;;;6.35;3.08;;;;;;;;;;5015142;28;20270;-68
2023/07/17 00:34:06;;;;;;;10.50;3.25;;;;;;;;;;5007894;28;20309;-68
2023/07/17 00:36:31;;;;;;;9.10;3.40;;;;;;;;;;5015911;28;20293;-69
2023/07/17 00:38:56;;;;;;;7.15;3.40;;;;;;;;;;5010106;28;20229;-68
2023/07/17 00:41:22;;;;;;;6.68;3.20;;;;;;;;;;5012966;28;20253;-69
2023/07/17 00:43:47;;;;;;;6.05;3.00;;;;;;;;;;5009757;28;20277;-69
2023/07/17 00:46:13;;;;;;;6.78;3.03;;;;;;;;;;5014136;28;20205;-69
2023/07/17 00:48:38;;;;;;;8.07;2.97;;;;;;;;;;5013545;28;20304;-69
2023/07/17 00:51:04;;;;;;;7.07;2.72;;;;;;;;;;5000894;28;20198;-68
2023/07/17 00:53:29;;;;;;;5.93;2.70;;;;;;;;;;5002170;28;20194;-68
2023/07/17 00:55:54;;;;;;;4.93;2.70;;;;;;;;;;5018382;28;20273;-68
2023/07/17 00:58:20;;;;;;;7.88;3.05;;;;;;;;;;5015875;28;20190;-68
2023/07/17 01:00:46;;;;;;;8.23;2.78;;;;;;;;;;5011565;28;20187;-68
2023/07/17 01:03:11;;;;;;;4.90;2.70;;;;;;;;;;5012900;28;20202;-68
2023/07/17 01:05:37;;;;;;;6.57;3.00;;;;;;;;;;5009557;28;20183;-68
2023/07/17 01:08:02;;;;;;;5.50;2.80;;;;;;;;;;5013983;28;20205;-69
2023/07/17 01:10:28;;;;;;;10.02;2.63;;;;;;;;;;5008580;28;20578;-69
2023/07/17 01:12:53;;;;;;;9.35;2.55;;;;;;;;;;5019468;28;20209;-69
2023/07/17 01:15:18;;;;;;;8.10;3.13;;;;;;;;;;5008057;28;20674;-68
2023/07/17 01:17:44;;;;;;;5.50;2.95;;;;;;;;;;5004468;28;20218;-67
2023/07/17 01:20:10;;;;;;;5.20;2.90;;;;;;;;;;4994884;28;20195;-67
2023/07/17 01:22:48;;;;;;;7.00;2.75;;;;;;;;;;5007591;28;20266;-68
2023/07/17 01:25:13;;;;;;;8.23;2.75;;;;;;;;;;4999706;28;20273;-68
2023/07/17 01:27:38;;;;;;;7.13;3.13;;;;;;;;;;5013096;28;20316;-68
2023/07/17 01:30:04;;;;;;;6.20;2.90;;;;;;;;;;5008837;28;20199;-68
2023/07/17 01:32:30;;;;;;;7.07;2.80;;;;;;;;;;5020343;28;20194;-68
2023/07/17 01:34:55;;;;;;;5.25;2.55;;;;;;;;;;5017999;28;20198;-68
2023/07/17 01:37:21;;;;;;;6.05;2.72;;;;;;;;;;5000703;28;20289;-67
2023/07/17 01:39:46;;;;;;;5.82;3.17;;;;;;;;;;4995734;28;20290;-67
2023/07/17 01:42:11;;;;;;;8.13;3.05;;;;;;;;;;4996178;28;20194;-67
2023/07/17 01:44:37;;;;;;;6.97;2.80;;;;;;;;;;5015952;28;20205;-68
2023/07/17 01:47:02;;;;;;;8.52;2.78;;;;;;;;;;5012322;28;20226;-68
2023/07/17 01:49:28;;;;;;;6.65;2.95;;;;;;;;;;5011250;28;20627;-69
2023/07/17 01:51:53;;;;;;;4.45;3.35;;;;;;;;;;5011219;28;20269;-69
2023/07/17 01:54:19;;;;;;;6.25;3.50;;;;;;;;;;5008217;28;20191;-68
2023/07/17 01:56:44;;;;;;;6.90;3.30;;;;;;;;;;5008712;28;20202;-68
2023/07/17 01:59:09;;;;;;;7.35;3.28;;;;;;;;;;5010363;28;20214;-69
2023/07/17 02:01:35;;;;;;;9.38;3.92;;;;;;;;;;5017596;28;20195;-68
2023/07/17 02:04:00;;;;;;;10.07;3.63;;;;;;;;;;5010533;28;20186;-67
2023/07/17 02:06:26;;;;;;;9.18;3.85;;;;;;;;;;5006749;28;20193;-67
2023/07/17 02:08:51;;;;;;;7.63;3.33;;;;;;;;;;5001594;28;20590;-67
2023/07/17 02:11:17;;;;;;;8.48;3.83;;;;;;;;;;5015076;28;20198;-67
2023/07/17 02:13:42;;;;;;;8.75;4.07;;;;;;;;;;5011280;28;20763;-68
2023/07/17 02:16:07;;;;;;;8.40;4.43;;;;;;;;;;5007325;28;20202;-69
2023/07/17 02:18:33;;;;;;;7.93;3.72;;;;;;;;;;5006885;28;20203;-68
2023/07/17 02:20:58;;;;;;;9.32;3.92;;;;;;;;;;5003671;28;20178;-68
2023/07/17 02:23:24;;;;;;;7.70;4.22;;;;;;;;;;5006253;28;20278;-68
2023/07/17 02:25:49;;;;;;;6.05;3.15;;;;;;;;;;5008580;28;20195;-68
2023/07/17 02:28:15;;;;;;;8.15;4.45;;;;;;;;;;5015673;28;20309;-68
2023/07/17 02:30:40;;;;;;;8.65;3.85;;;;;;;;;;5012396;28;20196;-66
2023/07/17 02:33:06;;;;;;;6.13;4.07;;;;;;;;;;5013692;28;20194;-67
2023/07/17 02:35:31;;;;;;;10.65;3.75;;;;;;;;;;5017440;28;20189;-67
2023/07/17 02:37:57;;;;;;;10.73;4.00;;;;;;;;;;5010793;28;20191;-67
2023/07/17 02:40:22;;;;;;;5.55;3.85;;;;;;;;;;5000340;28;20282;-67
2023/07/17 02:42:47;;;;;;;15.10;4.20;;;;;;;;;;5016146;28;20235;-67
2023/07/17 02:45:13;;;;;;;10.15;3.63;;;;;;;;;;5020172;28;20507;-68
2023/07/17 02:47:38;;;;;;;6.93;4.20;;;;;;;;;;5006705;28;20208;-68
2023/07/17 02:50:05;;;;;;;7.72;4.30;;;;;;;;;;5003092;28;20209;-68
2023/07/17 02:52:34;;;;;;;6.22;3.65;;;;;;;;;;5012008;28;20645;-68
2023/07/17 02:55:00;;;;;;;9.45;4.57;;;;;;;;;;5014037;28;20190;-68
2023/07/17 02:57:25;;;;;;;6.95;4.25;;;;;;;;;;5018900;28;20210;-69
2023/07/17 02:59:51;;;;;;;12.65;4.07;;;;;;;;;;5012781;28;20195;-67
2023/07/17 03:02:16;;;;;;;9.65;4.20;;;;;;;;;;5010989;28;20214;-67
2023/07/17 03:04:44;;;;;;;8.98;4.70;;;;;;;;;;5021455;28;20274;-67
2023/07/17 03:07:09;;;;;;;8.77;4.43;;;;;;;;;;5018846;28;20210;-68
2023/07/17 03:09:35;;;;;;;9.25;4.43;;;;;;;;;;5017095;28;20194;-67
2023/07/17 03:12:00;;;;;;;7.80;4.05;;;;;;;;;;5020778;28;20218;-68
2023/07/17 03:14:25;;;;;;;9.48;4.28;;;;;;;;;;5018618;28;20199;-68
2023/07/17 03:16:51;;;;;;;6.20;4.20;;;;;;;;;;5015255;28;20695;-67
2023/07/17 03:19:16;;;;;;;8.13;4.30;;;;;;;;;;5014218;28;20226;-67
2023/07/17 03:21:41;;;;;;;8.98;4.47;;;;;;;;;;5001401;28;20261;-67
2023/07/17 03:24:07;;;;;;;9.75;4.07;;;;;;;;;;5020881;28;20237;-68
2023/07/17 03:26:32;;;;;;;7.07;4.00;;;;;;;;;;5025976;28;20832;-67
2023/07/17 03:28:58;;;;;;;6.53;4.00;;;;;;;;;;5013713;28;20222;-67
2023/07/17 03:31:23;;;;;;;8.23;3.88;;;;;;;;;;5013950;28;20195;-67
2023/07/17 03:33:48;;;;;;;10.32;4.50;;;;;;;;;;4994477;28;20656;-67
2023/07/17 03:36:14;;;;;;;8.77;4.43;;;;;;;;;;5005318;28;20261;-67
2023/07/17 03:38:40;;;;;;;9.93;4.65;;;;;;;;;;5011400;28;20195;-67
2023/07/17 03:41:06;;;;;;;9.23;4.90;;;;;;;;;;5007768;28;20270;-68
2023/07/17 03:43:31;;;;;;;9.27;4.55;;;;;;;;;;5011277;28;20301;-67
2023/07/17 03:45:56;;;;;;;9.23;5.07;;;;;;;;;;5007047;28;20246;-68
2023/07/17 03:48:22;;;;;;;7.25;4.32;;;;;;;;;;5009670;28;20225;-67
2023/07/17 03:50:48;;;;;;;12.05;4.80;;;;;;;;;;5019198;28;20225;-67
2023/07/17 03:53:13;;;;;;;10.75;5.00;;;;;;;;;;4999186;28;20229;-67
2023/07/17 03:55:39;;;;;;;8.35;4.80;;;;;;;;;;5019051;28;20665;-66
2023/07/17 03:58:06;;;;;;;8.75;4.88;;;;;;;;;;5016273;28;20191;-69
2023/07/17 04:00:32;;;;;;;5.40;4.18;;;;;;;;;;4990523;28;20195;-68
2023/07/17 04:02:57;;;;;;;12.30;4.80;;;;;;;;;;5017207;28;20201;-71
2023/07/17 04:05:23;;;;;;;9.05;4.88;;;;;;;;;;4996515;28;20598;-68
2023/07/17 04:07:48;;;;;;;10.50;4.15;;;;;;;;;;5013325;28;20246;-68
2023/07/17 04:10:13;;;;;;;10.85;5.07;;;;;;;;;;5013804;28;20623;-67
2023/07/17 04:12:39;;;;;;;12.63;4.47;;;;;;;;;;5010985;28;20269;-67
2023/07/17 04:15:05;;;;;;;10.25;5.05;;;;;;;;;;5001170;28;20269;-67
2023/07/17 04:17:30;;;;;;;11.85;4.85;;;;;;;;;;5005413;28;20285;-68
2023/07/17 04:19:55;;;;;;;9.68;4.75;;;;;;;;;;5020511;28;20212;-69
2023/07/17 04:22:21;;;;;;;6.75;4.18;;;;;;;;;;5015526;28;20645;-68
2023/07/17 04:24:46;;;;;;;8.57;5.03;;;;;;;;;;5017340;28;20222;-68
2023/07/17 04:27:11;;;;;;;9.38;5.53;;;;;;;;;;5000482;28;20250;-68
2023/07/17 04:29:37;;;;;;;7.53;4.65;;;;;;;;;;5018191;28;20201;-68
2023/07/17 04:32:03;;;;;;;11.65;5.25;;;;;;;;;;5005283;28;20244;-70
2023/07/17 04:34:29;;;;;;;12.65;5.00;;;;;;;;;;5010991;28;20198;-67
2023/07/17 04:36:54;;;;;;;11.20;5.20;;;;;;;;;;5000396;28;20194;-68
2023/07/17 04:39:20;;;;;;;12.43;4.78;;;;;;;;;;5020744;28;20190;-67
2023/07/17 04:41:45;;;;;;;7.95;4.75;;;;;;;;;;5003210;28;20195;-68
2023/07/17 04:44:10;;;;;;;11.63;5.10;;;;;;;;;;5009820;28;20195;-67
2023/07/17 04:46:36;;;;;;;9.73;4.93;;;;;;;;;;5006596;28;20205;-68
2023/07/17 04:49:02;;;;;;;11.57;5.18;;;;;;;;;;5015816;28;20260;-67
2023/07/17 04:51:28;;;;;;;8.98;4.60;;;;;;;;;;5017309;28;20217;-67
2023/07/17 04:53:53;;;;;;;14.00;5.05;;;;;;;;;;5009534;28;20221;-68
2023/07/17 04:56:19;;;;;;;12.13;5.05;;;;;;;;;;5016621;28;20187;-69
2023/07/17 04:58:44;;;;;;;11.40;5.00;;;;;;;;;;5003802;28;20194;-69
2023/07/17 05:01:09;;;;;;;9.73;5.13;;;;;;;;;;5002852;28;20194;-70
2023/07/17 05:03:36;;;;;;;11.27;5.15;;;;;;;;;;5002656;28;20685;-67
2023/07/17 05:06:02;;;;;;;8.52;4.50;;;;;;;;;;5002312;28;20490;-68
2023/07/17 05:08:27;;;;;;;10.07;4.82;;;;;;;;;;5003603;28;20211;-69
2023/07/17 05:10:54;;;;;;;13.05;5.55;;;;;;;;;;5009031;28;20214;-68
2023/07/17 05:13:19;;;;;;;11.18;4.43;;;;;;;;;;5007665;28;20250;-71
2023/07/17 05:15:44;;;;;;;11.80;5.18;;;;;;;;;;5008311;28;20194;-68
2023/07/17 05:18:10;;;;;;;10.05;4.90;;;;;;;;;;5001097;28;20215;-68
2023/07/17 05:20:35;;;;;;;9.02;4.70;;;;;;;;;;4998709;28;20197;-70
2023/07/17 05:23:00;;;;;;;9.45;5.20;;;;;;;;;;5012335;28;20203;-67
2023/07/17 05:25:26;;;;;;;9.75;4.47;;;;;;;;;;5002570;28;20595;-69
2023/07/17 05:27:51;;;;;;;11.88;4.57;;;;;;;;;;5015599;28;20225;-73
2023/07/17 05:30:17;;;;;;;9.85;4.55;;;;;;;;;;5000745;28;20196;-69
2023/07/17 05:32:42;;;;;;;12.77;4.75;;;;;;;;;;5010445;28;20191;-68
2023/07/17 05:35:08;;;;;;;11.20;4.82;;;;;;;;;;4997105;28;20274;-68
2023/07/17 05:37:34;;;;;;;11.93;4.07;;;;;;;;;;5001194;28;20187;-67
2023/07/17 05:39:59;;;;;;;9.43;4.55;;;;;;;;;;4991713;28;20190;-71
2023/07/17 05:42:24;;;;;;;14.80;5.18;;;;;;;;;;5015863;28;20201;-68
2023/07/17 05:44:50;;;;;;;12.25;4.68;;;;;;;;;;5008981;28;20274;-69
2023/07/17 05:47:15;;;;;;;11.98;4.10;;;;;;;;;;4998350;28;20646;-69
2023/07/17 05:49:41;;;;;;;13.52;4.90;;;;;;;;;;5001111;28;20187;-68
2023/07/17 05:52:07;;;;;;;10.35;4.75;;;;;;;;;;5012506;28;20193;-67
2023/07/17 05:54:33;;;;;;;12.48;4.57;;;;;;;;;;5004841;28;20192;-69
2023/07/17 05:56:58;;;;;;;13.15;4.65;;;;;;;;;;5003683;28;20221;-69
2023/07/17 05:59:23;;;;;;;13.95;5.20;;;;;;;;;;5015931;28;20679;-69
2023/07/17 06:01:49;;;;;;;14.52;4.90;;;;;;;;;;5006007;28;20214;-71
2023/07/17 06:04:14;;;;;;;10.13;4.88;;;;;;;;;;5001281;28;20203;-69
2023/07/17 06:06:40;;;;;;;13.95;5.78;;;;;;;;;;5005473;28;20654;-72
2023/07/17 06:09:06;;;;;;;12.27;4.70;;;;;;;;;;5005019;28;20219;-69
2023/07/17 06:11:31;;;;;;;10.85;4.90;;;;;;;;;;4993681;28;20178;-68
2023/07/17 06:13:57;;;;;;;9.88;4.30;;;;;;;;;;5011059;28;20191;-69
2023/07/17 06:16:22;;;;;;;10.48;4.80;;;;;;;;;;5010131;28;20186;-67
2023/07/17 06:18:47;;;;;;;13.82;4.70;;;;;;;;;;5009086;28;20668;-69
2023/07/17 06:21:13;;;;;;;12.18;4.72;;;;;;;;;;5007626;28;20272;-69
2023/07/17 06:23:38;;;;;;;10.63;4.90;;;;;;;;;;5004539;28;20198;-67
2023/07/17 06:26:04;;;;;;;11.90;4.82;;;;;;;;;;5006544;28;20662;-67
2023/07/17 06:28:30;;;;;;;10.30;4.75;;;;;;;;;;5011726;28;20296;-68
2023/07/17 06:30:56;;;;;;;10.82;5.00;;;;;;;;;;5010403;28;20541;-67
2023/07/17 06:33:24;;;;;;;14.98;5.28;;;;;;;;;;5007446;28;20340;-67
2023/07/17 06:35:50;;;;;;;15.63;5.65;;;;;;;;;;5011566;28;20182;-68
2023/07/17 06:38:15;;;;;;;13.80;5.75;;;;;;;;;;5013178;28;20185;-72
2023/07/17 06:40:40;;;;;;;14.88;5.68;;;;;;;;;;5001931;28;20210;-68
2023/07/17 06:43:06;;;;;;;10.75;5.32;;;;;;;;;;5009045;28;20238;-67
2023/07/17 06:45:33;;;;;;;15.63;5.32;;;;;;;;;;4998871;28;20654;-67
2023/07/17 06:47:59;;;;;;;16.00;5.93;;;;;;;;;;4994643;28;20222;-68
2023/07/17 06:50:24;;;;;;;12.43;5.55;;;;;;;;;;5002806;28;20191;-68
2023/07/17 06:52:49;;;;;;;16.15;5.38;;;;;;;;;;5006776;28;20187;-67
2023/07/17 06:55:16;;;;;;;14.77;5.63;;;;;;;;;;5002170;28;21006;-68
2023/07/17 06:57:41;;;;;;;13.88;5.90;;;;;;;;;;5005244;28;20266;-69
2023/07/17 07:00:07;;;;;;;14.75;5.50;;;;;;;;;;5003620;28;20274;-68
2023/07/17 07:02:33;;;;;;;13.45;5.10;;;;;;;;;;5004573;28;20223;-70
2023/07/17 07:04:59;;;;;;;14.70;6.03;;;;;;;;;;4998453;28;20206;-70
2023/07/17 07:07:24;;;;;;;15.13;6.28;;;;;;;;;;5000846;28;20223;-68
2023/07/17 07:09:49;;;;;;;15.45;5.43;;;;;;;;;;5006254;28;20195;-72
2023/07/17 07:12:15;;;;;;;12.45;5.78;;;;;;;;;;5006502;28;20191;-69
2023/07/17 07:14:41;;;;;;;15.75;5.95;;;;;;;;;;5011988;28;20249;-68
2023/07/17 07:17:07;;;;;;;19.92;6.40;;;;;;;;;;5007119;28;20206;-68
2023/07/17 07:19:33;;;;;;;19.17;6.22;;;;;;;;;;5010713;28;20529;-69
2023/07/17 07:21:59;;;;;;;14.05;6.15;;;;;;;;;;4999672;28;20560;-70
2023/07/17 07:24:24;;;;;;;14.65;5.30;;;;;;;;;;5009923;28;20191;-68
2023/07/17 07:26:49;;;;;;;14.93;5.65;;;;;;;;;;4998386;28;20255;-68
2023/07/17 07:29:15;;;;;;;13.65;5.63;;;;;;;;;;5007281;28;20218;-69
2023/07/17 07:31:40;;;;;;;14.90;6.78;;;;;;;;;;5003015;28;20895;-69
2023/07/17 07:34:05;;;;;;;14.48;5.22;;;;;;;;;;5007612;28;20187;-69
2023/07/17 07:36:31;;;;;;;14.85;5.78;;;;;;;;;;5002320;28;20183;-72
2023/07/17 07:38:56;;;;;;;13.57;5.68;;;;;;;;;;5005866;28;20198;-69
2023/07/17 07:41:22;;;;;;;13.23;6.03;;;;;;;;;;5011132;28;20650;-70
2023/07/17 07:43:47;;;;;;;13.63;5.82;;;;;;;;;;4998467;28;20191;-70
2023/07/17 07:46:13;;;;;;;12.40;5.97;;;;;;;;;;5016927;28;20498;-70
2023/07/17 07:48:38;;;;;;;15.25;6.20;;;;;;;;;;5011129;28;20291;-69
2023/07/17 07:51:03;;;;;;;17.05;5.93;;;;;;;;;;5009530;28;20226;-69
2023/07/17 07:53:30;;;;;;;12.90;5.65;;;;;;;;;;5000128;28;20246;-70
2023/07/17 07:55:55;;;;;;;14.85;5.75;;;;;;;;;;5010262;28;20554;-69
2023/07/17 07:58:20;;;;;;;15.35;5.72;;;;;;;;;;5007723;28;20269;-70
2023/07/17 08:00:46;;;;;;;15.95;5.50;;;;;;;;;;5006073;28;20657;-67
2023/07/17 08:03:11;;;;;;;13.63;5.80;;;;;;;;;;5000979;28;20241;-69
2023/07/17 08:05:36;;;;;;;15.13;6.45;;;;;;;;;;5019094;28;20191;-68
2023/07/17 08:08:02;;;;;;;21.67;7.20;;;;;;;;;;5009006;28;20564;-68
2023/07/17 08:10:27;;;;;;;10.77;5.95;;;;;;;;;;4992806;28;20199;-69
2023/07/17 08:12:53;;;;;;;15.60;6.13;;;;;;;;;;5002986;28;20623;-70
2023/07/17 08:15:18;;;;;;;11.73;5.38;;;;;;;;;;5006985;28;20196;-68
2023/07/17 08:17:43;;;;;;;10.60;5.57;;;;;;;;;;5002873;28;20206;-69
2023/07/17 08:20:09;;;;;;;14.13;5.00;;;;;;;;;;5004354;28;20630;-69
2023/07/17 08:22:34;;;;;;;12.00;5.97;;;;;;;;;;5015283;28;20217;-71
2023/07/17 08:25:00;;;;;;;16.58;6.10;;;;;;;;;;5006175;28;20665;-68
2023/07/17 08:27:25;;;;;;;15.07;6.05;;;;;;;;;;5004440;28;20309;-71
2023/07/17 08:29:51;;;;;;;11.70;5.80;;;;;;;;;;4997075;28;20187;-68
2023/07/17 08:32:16;;;;;;;12.55;5.18;;;;;;;;;;5009403;28;20219;-68
2023/07/17 08:34:42;;;;;;;12.48;5.22;;;;;;;;;;5003945;28;20183;-68
2023/07/17 08:37:07;;;;;;;13.48;5.55;;;;;;;;;;4998283;28;20237;-69
2023/07/17 08:39:32;;;;;;;13.20;6.00;;;;;;;;;;4994509;28;20274;-71
2023/07/17 08:41:58;;;;;;;12.70;5.53;;;;;;;;;;4986293;28;20190;-69
2023/07/17 08:44:24;;;;;;;14.18;5.85;;;;;;;;;;5004958;28;20188;-68
2023/07/17 08:46:51;;;;;;;14.23;5.85;;;;;;;;;;5006685;28;20266;-71
2023/07/17 08:49:18;;;;;;;10.73;5.53;;;;;;;;;;5000326;28;20222;-71
2023/07/17 08:51:46;;;;;;;10.20;5.70;;;;;;;;;;5008500;28;20182;-70
2023/07/17 08:54:14;;;;;;;14.45;5.82;;;;;;;;;;5007910;28;20187;-71
2023/07/17 08:56:41;;;;;;;12.55;5.82;;;;;;;;;;5011067;28;20273;-70
2023/07/17 08:59:07;;;;;;;15.43;6.18;;;;;;;;;;5005732;28;20182;-73
2023/07/17 09:01:33;;;;;;;13.45;6.20;;;;;;;;;;5008480;28;20665;-73
2023/07/17 09:03:59;;;;;;;16.20;5.13;;;;;;;;;;5005513;28;20191;-71
2023/07/17 09:06:27;;;;;;;12.38;5.55;;;;;;;;;;5001246;28;20554;-73
2023/07/17 09:08:52;;;;;;;13.48;5.20;;;;;;;;;;4992221;28;20229;-69
2023/07/17 09:11:19;;;;;;;10.13;5.55;;;;;;;;;;5010066;28;20191;-71
2023/07/17 09:13:47;;;;;;;11.55;4.65;;;;;;;;;;4999047;28;20602;-73
2023/07/17 09:16:23;;;;;;;10.95;5.38;;;;;;;;;;4302362;28;10001014;-70
2023/07/17 09:18:53;;;;;;;11.10;6.03;;;;;;;;;;5007253;28;20240;-70
2023/07/17 09:21:23;;;;;;;12.38;5.90;;;;;;;;;;5004128;28;20217;-72
2023/07/17 09:23:53;;;;;;;9.57;5.35;;;;;;;;;;4996531;28;20192;-70
2023/07/17 09:26:21;;;;;;;11.32;5.40;;;;;;;;;;5001127;28;20239;-69
2023/07/17 09:28:57;;;;;;;13.85;5.30;;;;;;;;;;5002962;28;20272;-72
2023/07/17 09:31:24;;;;;;;12.70;5.22;;;;;;;;;;5003529;28;20858;-69
2023/07/17 09:33:50;;;;;;;10.43;4.80;;;;;;;;;;5007011;28;20225;-69
2023/07/17 09:36:15;;;;;;;10.45;4.95;;;;;;;;;;5002231;28;20214;-70
2023/07/17 09:38:41;;;;;;;9.18;4.95;;;;;;;;;;5004524;28;20195;-69
2023/07/17 09:41:26;;;;;;;10.60;5.50;;;;;;;;;;4997967;28;20235;-73
2023/07/17 09:44:05;;;;;;;9.23;5.05;;;;;;;;;;5002501;28;20210;-71
2023/07/17 09:46:35;;;;;;;12.30;4.82;;;;;;;;;;5008115;28;20776;-72
2023/07/17 09:49:03;;;;;;;9.70;4.63;;;;;;;;;;4997752;28;20219;-72
2023/07/17 09:51:29;;;;;;;13.52;4.43;;;;;;;;;;5007560;28;20269;-70
2023/07/17 09:53:58;;;;;;;11.93;4.82;;;;;;;;;;5006646;28;20198;-70
2023/07/17 09:56:27;;;;;;;13.27;3.88;;;;;;;;;;4999508;28;20297;-69
2023/07/17 09:58:57;;;;;;;11.45;4.03;;;;;;;;;;5000410;28;20170;-70
2023/07/17 10:01:25;;;;;;;8.75;4.03;;;;;;;;;;5006679;28;20218;-69
2023/07/17 10:03:51;;;;;;;8.98;4.45;;;;;;;;;;5002143;28;20187;-69
2023/07/17 10:06:18;;;;;;;10.65;4.30;;;;;;;;;;5002941;28;20194;-72
2023/07/17 10:08:46;;;;;;;13.07;4.30;;;;;;;;;;4998548;28;20250;-71
2023/07/17 10:11:14;;;;;;;10.25;3.92;;;;;;;;;;5004584;28;20194;-69
2023/07/17 10:13:40;;;;;;;8.95;4.43;;;;;;;;;;5001556;28;20189;-71
2023/07/17 10:16:06;;;;;;;9.40;4.25;;;;;;;;;;4990088;28;20206;-72
2023/07/17 10:18:31;;;;;;;8.85;4.22;;;;;;;;;;4998034;28;20602;-69
2023/07/17 10:21:00;;;;;;;10.93;4.43;;;;;;;;;;4979349;28;20651;-72
2023/07/17 10:23:27;;;;;;;8.98;4.35;;;;;;;;;;4998947;28;20565;-69
2023/07/17 10:26:05;;;;;;;8.15;4.53;;;;;;;;;;4999189;28;20836;-70
2023/07/17 10:28:33;;;;;;;9.57;4.10;;;;;;;;;;5001920;28;20198;-69
2023/07/17 10:31:20;;;;;;;10.95;4.15;;;;;;;;;;4997905;28;20226;-71
2023/07/17 10:33:49;;;;;;;9.27;4.05;;;;;;;;;;4994309;28;20195;-69
2023/07/17 10:36:15;;;;;;;9.80;4.53;;;;;;;;;;5006781;28;20210;-69
2023/07/17 10:38:42;;;;;;;10.82;4.55;;;;;;;;;;5000681;28;20234;-69
2023/07/17 10:41:13;;;;;;;10.20;4.63;;;;;;;;;;5006846;28;20277;-69
2023/07/17 10:44:01;;;;;;;10.52;5.07;;;;;;;;;;4995678;28;20195;-70
2023/07/17 10:46:28;;;;;;;7.28;4.38;;;;;;;;;;5004380;28;20190;-69
2023/07/17 10:49:13;;;;;;;7.22;3.58;;;;;;;;;;5008405;28;20210;-70
2023/07/17 10:51:43;;;;;;;9.30;3.30;;;;;;;;;;5001468;28;20182;-69
2023/07/17 10:54:08;;;;;;;8.75;3.80;;;;;;;;;;5008644;28;20278;-68
2023/07/17 10:56:34;;;;;;;9.07;3.30;;;;;;;;;;5004291;28;20278;-69
2023/07/17 10:59:00;;;;;;;9.23;3.58;;;;;;;;;;4999816;28;20545;-69
2023/07/17 11:01:25;;;;;;;6.15;3.30;;;;;;;;;;5005312;28;20703;-68
2023/07/17 11:03:53;;;;;;;10.95;4.30;;;;;;;;;;4995901;28;20194;-69
2023/07/17 11:06:19;;;;;;;16.63;5.68;;;;;;;;;;5005652;28;20306;-73
2023/07/17 11:08:51;;;;;;;12.82;5.47;;;;;;;;;;4999749;28;20211;-74
2023/07/17 11:11:17;;;;;;;12.48;5.60;;;;;;;;;;5000335;28;20275;-74
2023/07/17 11:13:44;;;;;;;9.57;4.95;;;;;;;;;;4999322;28;20199;-74
2023/07/17 11:16:10;;;;;;;11.43;4.80;;;;;;;;;;4993096;28;20199;-73
2023/07/17 11:19:04;;;;;;;9.48;4.80;;;;;;;;;;5007214;28;20306;-74
2023/07/17 11:21:29;;;;;;;8.95;4.85;;;;;;;;;;4987590;28;20203;-75
2023/07/17 11:23:56;;;;;;;8.82;4.80;;;;;;;;;;4992871;28;20346;-71
2023/07/17 11:26:28;;;;;;;11.30;5.43;;;;;;;;;;5004296;28;20226;-71
2023/07/17 11:28:55;;;;;;;9.70;4.60;;;;;;;;;;5004033;28;20591;-74
2023/07/17 11:31:27;;;;;;;8.38;3.22;;;;;;;;;;4995912;28;20199;-71
2023/07/17 11:33:59;;;;;;;8.23;3.22;;;;;;;;;;5009947;28;20606;-70
2023/07/17 11:36:32;;;;;;;9.93;3.47;;;;;;;;;;5008581;28;20191;-69
2023/07/17 11:39:08;;;;;;;6.38;2.78;;;;;;;;;;5004442;28;20189;-73
2023/07/17 11:41:50;;;;;;;9.27;3.22;;;;;;;;;;5005613;28;20203;-69
2023/07/17 11:44:23;;;;;;;5.60;2.75;;;;;;;;;;5008007;28;20217;-70
2023/07/17 11:46:52;;;;;;;6.57;3.13;;;;;;;;;;5004101;28;20222;-70
2023/07/17 11:49:17;;;;;;;5.60;3.08;;;;;;;;;;5010326;28;20218;-70
2023/07/17 11:51:43;;;;;;;7.47;3.83;;;;;;;;;;5004926;28;20210;-70
2023/07/17 11:54:08;;;;;;;7.90;3.00;;;;;;;;;;5006528;28;20681;-72
2023/07/17 11:56:40;;;;;;;8.85;3.10;;;;;;;;;;5003322;28;20191;-71
2023/07/17 11:59:14;;;;;;;6.88;2.95;;;;;;;;;;5008787;28;20190;-73
2023/07/17 12:01:40;;;;;;;8.13;2.90;;;;;;;;;;5004369;28;20242;-70
2023/07/17 12:04:19;;;;;;;5.47;2.92;;;;;;;;;;5006575;28;20740;-71
2023/07/17 12:06:44;;;;;;;4.13;2.78;;;;;;;;;;5004757;28;20195;-71
2023/07/17 12:09:10;;;;;;;5.75;2.90;;;;;;;;;;5007846;28;20255;-72
2023/07/17 12:11:35;;;;;;;4.88;2.88;;;;;;;;;;5004122;28;20277;-71
2023/07/17 12:14:00;;;;;;;7.13;3.03;;;;;;;;;;5007026;28;20194;-69
2023/07/17 12:16:26;;;;;;;6.47;3.00;;;;;;;;;;5005160;28;20314;-70
2023/07/17 12:18:51;;;;;;;6.97;2.75;;;;;;;;;;5004663;28;20183;-71
2023/07/17 12:21:17;;;;;;;7.57;2.85;;;;;;;;;;4998107;28;20899;-70
2023/07/17 12:23:42;;;;;;;5.93;2.88;;;;;;;;;;5004203;28;20206;-69
2023/07/17 12:26:07;;;;;;;7.75;2.47;;;;;;;;;;5011798;28;20208;-71
2023/07/17 12:28:33;;;;;;;5.13;3.22;;;;;;;;;;5006585;28;20246;-71
2023/07/17 12:30:59;;;;;;;5.13;2.53;;;;;;;;;;5012000;28;20210;-70
2023/07/17 12:33:24;;;;;;;3.55;2.42;;;;;;;;;;5011165;28;20518;-70
2023/07/17 12:35:49;;;;;;;3.22;2.08;;;;;;;;;;5008593;28;20198;-68
2023/07/17 12:38:15;;;;;;;5.53;2.63;;;;;;;;;;4989719;28;20190;-70
2023/07/17 12:40:40;;;;;;;6.97;2.20;;;;;;;;;;5002334;28;20198;-68
2023/07/17 12:43:05;;;;;;;8.25;2.42;;;;;;;;;;5002738;28;20599;-69
2023/07/17 12:45:31;;;;;;;7.50;2.53;;;;;;;;;;4990649;28;20272;-69
2023/07/17 12:47:56;;;;;;;6.05;2.53;;;;;;;;;;5013242;28;20665;-69
2023/07/17 12:50:22;;;;;;;5.95;3.00;;;;;;;;;;5010663;28;20222;-69
2023/07/17 12:52:47;;;;;;;4.50;2.80;;;;;;;;;;5006403;28;20187;-69
2023/07/17 12:55:12;;;;;;;6.32;2.85;;;;;;;;;;5003524;28;20205;-71
2023/07/17 12:57:38;;;;;;;6.53;3.35;;;;;;;;;;5003254;28;20261;-68
2023/07/17 13:00:04;;;;;;;7.95;3.30;;;;;;;;;;5005121;28;20727;-69
2023/07/17 13:02:29;;;;;;;7.65;3.63;;;;;;;;;;5009660;28;20202;-69
2023/07/17 13:04:55;;;;;;;9.82;3.60;;;;;;;;;;5002051;28;20550;-69
2023/07/17 13:07:20;;;;;;;8.88;3.47;;;;;;;;;;4989834;28;20195;-71
2023/07/17 13:09:45;;;;;;;5.90;2.63;;;;;;;;;;5002094;28;20191;-69
2023/07/17 13:12:11;;;;;;;6.65;2.63;;;;;;;;;;5005787;28;20680;-68
2023/07/17 13:14:36;;;;;;;6.90;2.60;;;;;;;;;;5010358;28;20256;-68
2023/07/17 13:17:02;;;;;;;5.25;2.35;;;;;;;;;;5003603;28;20596;-71
2023/07/17 13:19:28;;;;;;;5.75;2.40;;;;;;;;;;4999870;28;20190;-69
2023/07/17 13:21:53;;;;;;;7.30;2.45;;;;;;;;;;5001692;28;20190;-68
2023/07/17 13:24:20;;;;;;;5.00;2.40;;;;;;;;;;4997828;28;20226;-73
2023/07/17 13:26:46;;;;;;;5.78;2.33;;;;;;;;;;5006151;28;20917;-68
2023/07/17 13:29:11;;;;;;;6.60;2.33;;;;;;;;;;5000088;28;20214;-69
2023/07/17 13:31:36;;;;;;;3.72;2.22;;;;;;;;;;5006340;28;20289;-69
2023/07/17 13:34:02;;;;;;;4.00;2.38;;;;;;;;;;5006813;28;20897;-70
2023/07/17 13:36:27;;;;;;;6.53;3.38;;;;;;;;;;4997342;28;20273;-69
2023/07/17 13:38:53;;;;;;;6.30;3.13;;;;;;;;;;5004057;28;20684;-72
2023/07/17 13:41:38;;;;;;;6.25;2.85;;;;;;;;;;4996460;28;20278;-71
2023/07/17 13:44:04;;;;;;;9.20;3.75;;;;;;;;;;4985032;28;20198;-73
2023/07/17 13:46:29;;;;;;;7.53;3.53;;;;;;;;;;5003256;28;20737;-72
2023/07/17 13:48:55;;;;;;;7.07;3.40;;;;;;;;;;5004431;28;20284;-72
2023/07/17 13:51:20;;;;;;;8.85;4.15;;;;;;;;;;4988613;28;20194;-72
2023/07/17 13:53:45;;;;;;;6.93;3.10;;;;;;;;;;5002598;28;20237;-72
2023/07/17 13:56:11;;;;;;;9.00;3.55;;;;;;;;;;4298250;28;10000319;-72
2023/07/17 13:58:36;;;;;;;5.78;3.67;;;;;;;;;;5002932;28;20190;-71
2023/07/17 14:01:01;;;;;;;8.75;4.03;;;;;;;;;;5002979;28;20282;-72
2023/07/17 14:03:27;;;;;;;7.90;3.72;;;;;;;;;;5001544;28;20191;-71
2023/07/17 14:05:53;;;;;;;9.98;4.10;;;;;;;;;;5005275;28;20191;-70
2023/07/17 14:08:18;;;;;;;8.27;3.70;;;;;;;;;;4998872;28;20294;-70
2023/07/17 14:10:44;;;;;;;7.35;3.63;;;;;;;;;;5001968;28;20270;-69
2023/07/17 14:13:09;;;;;;;6.82;3.22;;;;;;;;;;4999164;28;20231;-70
2023/07/17 14:15:35;;;;;;;7.50;3.85;;;;;;;;;;5001414;28;20189;-70
2023/07/17 14:18:00;;;;;;;7.43;3.75;;;;;;;;;;5006845;28;20222;-70
2023/07/17 14:20:25;;;;;;;7.45;3.28;;;;;;;;;;5002399;28;20186;-70
2023/07/17 14:22:51;;;;;;;8.18;3.58;;;;;;;;;;5001812;28;20223;-70
2023/07/17 14:25:16;;;;;;;7.43;3.50;;;;;;;;;;5001498;28;20269;-70
2023/07/17 14:27:42;;;;;;;8.10;3.15;;;;;;;;;;5000681;28;20274;-69
2023/07/17 14:30:08;;;;;;;10.40;3.83;;;;;;;;;;5006752;28;20197;-69
2023/07/17 14:32:34;;;;;;;9.32;4.07;;;;;;;;;;4999860;28;20199;-69
2023/07/17 14:34:59;;;;;;;10.52;4.38;;;;;;;;;;5003528;28;20203;-68